createdAt,value
2022-08-07T00:00:40.403Z,21.80
2022-08-07T00:03:09.881Z,21.40
2022-08-07T00:05:52.894Z,21.47
2022-08-07T00:08:37.144Z,21.20
2022-08-07T00:11:30.089Z,21.87
2022-08-07T00:14:01.670Z,21.77
2022-08-07T00:16:32.989Z,21.90
2022-08-07T00:19:05.734Z,21.80
2022-08-07T00:21:56.057Z,21.77
2022-08-07T00:24:40.133Z,22.10
2022-08-07T00:27:13.740Z,22.20
2022-08-07T00:29:50.916Z,22.30
2022-08-07T00:32:28.259Z,22.67
2022-08-07T00:35:16.659Z,22.63
2022-08-07T00:37:50.103Z,23.23
2022-08-07T00:40:38.963Z,23.30
2022-08-07T00:44:00.668Z,23.80
2022-08-07T00:46:00.490Z,23.70
2022-08-07T00:48:34.853Z,23.47
2022-08-07T00:51:27.838Z,23.50
2022-08-07T00:54:16.282Z,25.00
2022-08-07T00:56:53.393Z,23.90
2022-08-07T00:59:36.205Z,23.87
2022-08-07T01:02:14.183Z,23.90
2022-08-07T01:05:18.902Z,23.63
2022-08-07T01:07:50.328Z,24.00
2022-08-07T01:10:39.018Z,24.20
2022-08-07T01:17:06.996Z,25.30
2022-08-07T01:19:38.544Z,25.07
2022-08-07T01:22:36.050Z,24.57
2022-08-07T01:25:54.757Z,25.63
2022-08-07T01:28:17.976Z,25.40
2022-08-07T01:30:52.003Z,25.23
2022-08-07T01:33:55.159Z,25.27
2022-08-07T01:36:22.097Z,25.87
2022-08-07T01:39:10.710Z,26.23
2022-08-07T01:42:07.081Z,26.00
2022-08-07T01:44:32.407Z,26.47
2022-08-07T01:48:18.138Z,26.73
2022-08-07T01:50:29.006Z,26.93
2022-08-07T01:53:08.952Z,27.50
2022-08-07T01:55:51.741Z,27.57
2022-08-07T01:58:33.783Z,28.20
2022-08-07T02:01:59.634Z,28.60
2022-08-07T02:04:27.750Z,28.77
2022-08-07T02:07:44.719Z,28.53
2022-08-07T02:10:18.684Z,28.60
2022-08-07T02:12:50.962Z,29.47
2022-08-07T02:15:26.402Z,28.30
2022-08-07T02:18:09.809Z,28.17
2022-08-07T02:20:40.945Z,28.07
2022-08-07T02:23:23.814Z,28.50
2022-08-07T02:26:31.973Z,28.17
2022-08-07T02:29:00.189Z,28.03
2022-08-07T02:32:10.873Z,27.70
2022-08-07T02:34:48.690Z,27.83
2022-08-07T02:37:52.489Z,27.13
2022-08-07T02:40:46.473Z,28.23
2022-08-07T02:43:29.525Z,28.17
2022-08-07T02:46:02.541Z,28.57
2022-08-07T02:48:40.613Z,28.77
2022-08-07T02:51:41.937Z,28.77
2022-08-07T02:54:17.936Z,29.13
2022-08-07T02:57:03.254Z,29.70
2022-08-07T02:59:54.913Z,30.83
2022-08-07T03:02:33.149Z,31.73
2022-08-07T03:05:38.200Z,31.83
2022-08-07T03:08:14.936Z,31.73
2022-08-07T03:10:46.730Z,32.20
2022-08-07T03:13:26.726Z,33.43
2022-08-07T03:16:03.042Z,33.10
2022-08-07T03:18:37.818Z,34.03
2022-08-07T03:21:33.149Z,35.13
2022-08-07T03:24:20.055Z,34.63
2022-08-07T03:26:59.964Z,34.43
2022-08-07T03:29:36.837Z,34.50
2022-08-07T03:32:12.948Z,34.37
2022-08-07T03:34:47.426Z,35.80
2022-08-07T03:37:54.924Z,36.30
2022-08-07T03:40:36.136Z,36.67
2022-08-07T03:43:09.983Z,37.13
2022-08-07T03:45:48.432Z,38.47
2022-08-07T03:48:17.371Z,37.83
2022-08-07T03:50:58.438Z,36.27
2022-08-07T03:54:05.551Z,38.63
2022-08-07T03:56:36.609Z,37.77
2022-08-07T03:59:20.165Z,38.63
2022-08-07T04:01:56.793Z,38.83
2022-08-07T04:04:29.368Z,42.70
2022-08-07T04:07:22.849Z,43.00
2022-08-07T04:10:07.107Z,42.27
2022-08-07T04:12:52.485Z,42.67
2022-08-07T04:15:25.999Z,42.47
2022-08-07T04:18:57.425Z,43.90
2022-08-07T04:20:54.731Z,41.40
2022-08-07T04:23:43.694Z,43.63
2022-08-07T04:26:40.026Z,42.20
2022-08-07T04:29:20.712Z,44.77
2022-08-07T04:32:13.591Z,44.53
2022-08-07T04:34:56.250Z,46.40
2022-08-07T04:38:16.167Z,45.10
2022-08-07T04:40:52.945Z,44.83
2022-08-07T04:44:10.409Z,45.80
2022-08-07T04:47:04.612Z,46.60
2022-08-07T04:50:04.464Z,47.10
2022-08-07T04:52:53.213Z,48.07
2022-08-07T04:58:15.549Z,50.30
2022-08-07T04:58:48.858Z,50.43
2022-08-07T05:01:30.843Z,51.67
2022-08-07T05:04:12.322Z,53.13
2022-08-07T05:06:59.626Z,53.43
2022-08-07T05:09:45.674Z,55.50
2022-08-07T05:12:26.722Z,56.47
2022-08-07T05:15:23.575Z,58.10
2022-08-07T05:18:00.794Z,57.27
2022-08-07T05:20:43.640Z,59.77
2022-08-07T05:23:29.108Z,59.50
2022-08-07T05:26:23.705Z,58.77
2022-08-07T05:29:04.345Z,59.07
2022-08-07T05:31:38.841Z,57.27
2022-08-07T05:34:15.006Z,53.70
2022-08-07T05:36:49.093Z,50.80
2022-08-07T05:40:17.926Z,46.77
2022-08-07T05:42:33.391Z,43.50
2022-08-07T05:45:14.531Z,42.77
2022-08-07T05:48:10.637Z,41.40
2022-08-07T05:50:52.784Z,40.90
2022-08-07T05:54:13.868Z,39.87
2022-08-07T05:56:20.916Z,39.83
2022-08-07T05:59:06.460Z,37.63
2022-08-07T06:01:40.446Z,37.07
2022-08-07T06:04:13.821Z,37.10
2022-08-07T06:06:56.605Z,33.60
2022-08-07T06:10:05.199Z,30.30
2022-08-07T06:12:45.625Z,28.07
2022-08-07T06:15:39.030Z,24.90
2022-08-07T06:18:21.819Z,24.13
2022-08-07T06:22:15.778Z,22.93
2022-08-07T06:24:38.366Z,22.53
2022-08-07T06:27:00.110Z,21.87
2022-08-07T06:29:39.195Z,21.57
2022-08-07T06:32:14.559Z,22.10
2022-08-07T06:34:50.083Z,21.47
2022-08-07T06:38:10.046Z,21.10
2022-08-07T06:42:02.477Z,21.37
2022-08-07T06:44:39.630Z,20.83
2022-08-07T06:47:12.540Z,21.60
2022-08-07T06:49:51.502Z,21.80
2022-08-07T06:52:31.473Z,21.90
2022-08-07T06:55:33.101Z,21.10
2022-08-07T06:57:57.138Z,21.23
2022-08-07T07:00:28.340Z,21.40
2022-08-07T07:03:01.353Z,21.80
2022-08-07T07:06:05.214Z,21.10
2022-08-07T07:08:28.741Z,21.40
2022-08-07T07:10:57.852Z,21.40
2022-08-07T07:13:43.635Z,21.27
2022-08-07T07:16:30.739Z,20.90
2022-08-07T07:19:11.302Z,21.40
2022-08-07T07:22:04.731Z,20.90
2022-08-07T07:24:43.245Z,20.77
2022-08-07T07:27:35.592Z,21.00
2022-08-07T07:30:32.666Z,20.80
2022-08-07T07:33:08.937Z,20.70
2022-08-07T07:35:44.126Z,20.63
2022-08-07T07:38:25.400Z,21.60
2022-08-07T07:41:01.911Z,21.00
2022-08-07T07:43:48.075Z,21.40
2022-08-07T07:46:50.020Z,19.40
2022-08-07T07:50:33.819Z,19.77
2022-08-07T07:52:05.759Z,20.83
2022-08-07T07:54:36.695Z,20.90
2022-08-07T07:57:06.317Z,20.00
2022-08-07T07:59:52.412Z,20.30
2022-08-07T08:02:34.220Z,20.23
2022-08-07T08:05:14.202Z,20.40
2022-08-07T08:07:59.909Z,19.73
2022-08-07T08:10:38.117Z,19.50
2022-08-07T08:13:10.664Z,19.80
2022-08-07T08:15:58.440Z,19.63
2022-08-07T08:18:29.521Z,19.50
2022-08-07T08:21:02.183Z,19.83
2022-08-07T08:23:49.767Z,19.87
2022-08-07T08:26:36.863Z,19.60
2022-08-07T08:29:05.940Z,20.00
2022-08-07T08:32:16.843Z,19.70
2022-08-07T08:34:29.189Z,19.50
2022-08-07T08:36:59.650Z,19.70
2022-08-07T08:39:39.372Z,20.30
2022-08-07T08:42:26.991Z,20.40
2022-08-07T08:45:04.225Z,20.70
2022-08-07T08:47:47.321Z,20.40
2022-08-07T08:50:34.760Z,19.93
2022-08-07T08:53:19.302Z,20.20
2022-08-07T08:55:55.606Z,20.00
2022-08-07T08:58:34.945Z,19.73
2022-08-07T09:01:15.419Z,20.53
2022-08-07T09:03:56.804Z,20.03
2022-08-07T09:06:42.770Z,20.10
2022-08-07T09:09:36.834Z,20.40
2022-08-07T09:12:20.159Z,20.70
2022-08-07T09:16:20.232Z,20.30
2022-08-07T09:18:11.495Z,19.87
2022-08-07T09:20:58.460Z,19.33
2022-08-07T09:24:31.343Z,19.63
2022-08-07T09:26:37.507Z,19.30
2022-08-07T09:30:03.805Z,18.60
2022-08-07T09:32:17.278Z,19.40
2022-08-07T09:34:56.121Z,18.47
2022-08-07T09:37:48.482Z,17.70
2022-08-07T09:40:31.116Z,18.30
2022-08-07T09:43:18.095Z,18.10
2022-08-07T09:47:26.079Z,17.93
2022-08-07T09:50:04.188Z,17.80
2022-08-07T09:52:16.638Z,18.50
2022-08-07T09:54:58.854Z,17.77
2022-08-07T09:58:08.254Z,17.80
2022-08-07T10:00:52.112Z,17.40
2022-08-07T10:04:03.014Z,17.70
2022-08-07T10:07:24.479Z,18.43
2022-08-07T10:10:21.661Z,19.40
2022-08-07T10:13:55.219Z,18.80
2022-08-07T10:16:29.595Z,18.60
2022-08-07T10:19:23.352Z,17.83
2022-08-07T10:22:15.799Z,17.53
2022-08-07T10:25:01.246Z,18.20
2022-08-07T10:27:45.757Z,17.50
2022-08-07T10:30:18.940Z,17.40
2022-08-07T10:33:14.828Z,17.70
2022-08-07T10:36:10.901Z,18.00
2022-08-07T10:38:50.117Z,17.43
2022-08-07T10:41:46.617Z,17.70
2022-08-07T10:44:38.028Z,17.67
2022-08-07T10:47:16.534Z,18.40
2022-08-07T10:49:54.014Z,18.40
2022-08-07T10:52:34.080Z,18.43
2022-08-07T10:55:21.203Z,18.40
2022-08-07T10:58:13.216Z,18.50
2022-08-07T11:00:56.338Z,19.37
2022-08-07T11:03:37.929Z,18.70
2022-08-07T11:06:26.766Z,19.00
2022-08-07T11:09:02.859Z,19.50
2022-08-07T11:11:37.666Z,22.77
2022-08-07T11:14:44.972Z,21.57
2022-08-07T11:17:07.221Z,19.10
2022-08-07T11:19:49.813Z,18.33
2022-08-07T11:22:37.054Z,18.50
2022-08-07T11:25:19.777Z,18.93
2022-08-07T11:28:01.859Z,20.07
2022-08-07T11:30:41.706Z,18.23
2022-08-07T11:33:19.384Z,18.50
2022-08-07T11:36:20.521Z,19.00
2022-08-07T11:39:09.391Z,17.80
2022-08-07T11:42:01.780Z,18.20
2022-08-07T11:44:52.405Z,18.03
2022-08-07T11:47:56.238Z,18.53
2022-08-07T11:50:57.998Z,17.90
2022-08-07T11:53:43.228Z,17.50
2022-08-07T11:56:52.240Z,17.40
2022-08-07T12:00:11.261Z,17.80
2022-08-07T12:03:45.405Z,17.17
2022-08-07T12:06:39.200Z,17.60
2022-08-07T12:09:16.360Z,17.43
2022-08-07T12:12:08.784Z,17.60
2022-08-07T12:14:52.713Z,17.50
2022-08-07T12:17:58.886Z,17.33
2022-08-07T12:20:34.755Z,17.17
2022-08-07T12:24:05.940Z,17.10
2022-08-07T12:26:29.713Z,17.83
2022-08-07T12:29:08.761Z,18.00
2022-08-07T12:32:01.459Z,18.30
2022-08-07T12:34:36.139Z,18.43
2022-08-07T12:37:08.608Z,18.93
2022-08-07T12:39:51.392Z,18.60
2022-08-07T12:42:31.960Z,18.80
2022-08-07T12:45:10.761Z,18.90
2022-08-07T12:48:05.587Z,19.13
2022-08-07T12:51:01.411Z,19.00
2022-08-07T12:54:37.158Z,18.87
2022-08-07T12:57:09.437Z,18.87
2022-08-07T12:59:55.249Z,19.30
2022-08-07T13:02:41.306Z,18.67
2022-08-07T13:06:03.764Z,19.80
2022-08-07T13:08:43.015Z,19.90
2022-08-07T13:12:00.898Z,20.17
2022-08-07T13:14:38.339Z,19.50
2022-08-07T13:17:39.820Z,19.90
2022-08-07T13:20:33.945Z,20.07
2022-08-07T13:24:02.222Z,19.77
2022-08-07T13:26:08.265Z,19.63
2022-08-07T13:28:55.274Z,20.17
2022-08-07T13:31:46.068Z,20.17
2022-08-07T13:34:38.949Z,20.20
2022-08-07T13:37:26.112Z,19.93
2022-08-07T13:40:35.230Z,20.03
2022-08-07T13:43:11.914Z,19.67
2022-08-07T13:46:21.798Z,19.70
2022-08-07T13:48:59.448Z,18.77
2022-08-07T13:52:05.588Z,18.97
2022-08-07T13:54:33.514Z,18.87
2022-08-07T13:57:23.869Z,18.60
2022-08-07T13:59:56.007Z,19.30
2022-08-07T14:02:39.508Z,19.30
2022-08-07T14:05:25.063Z,19.10
2022-08-07T14:08:13.295Z,18.50
2022-08-07T14:11:15.253Z,20.00
2022-08-07T14:13:55.389Z,19.50
2022-08-07T14:16:39.318Z,19.10
2022-08-07T14:20:39.720Z,19.40
2022-08-07T14:22:34.053Z,19.70
2022-08-07T14:25:14.276Z,18.87
2022-08-07T14:28:10.419Z,18.80
2022-08-07T14:30:52.629Z,18.63
2022-08-07T14:33:25.028Z,19.03
2022-08-07T14:36:34.151Z,18.70
2022-08-07T14:39:04.978Z,19.60
2022-08-07T14:42:19.794Z,18.70
2022-08-07T14:44:34.396Z,19.00
2022-08-07T14:50:18.874Z,19.03
2022-08-07T14:52:50.735Z,19.23
2022-08-07T14:55:34.547Z,18.87
2022-08-07T14:58:30.680Z,19.30
2022-08-07T15:04:19.694Z,19.93
2022-08-07T15:07:01.061Z,19.70
2022-08-07T15:10:11.210Z,19.73
2022-08-07T15:12:58.160Z,19.67
2022-08-07T15:15:41.161Z,19.80
2022-08-07T15:18:33.915Z,20.60
2022-08-07T15:30:18.344Z,20.20
2022-08-07T15:33:03.738Z,20.50
2022-08-07T15:36:02.007Z,19.77
2022-08-07T15:38:58.830Z,20.20
2022-08-07T15:42:45.295Z,20.33
2022-08-07T15:44:51.889Z,19.90
2022-08-07T15:48:01.242Z,19.50
2022-08-07T15:51:01.901Z,19.47
2022-08-07T15:53:51.597Z,19.90
2022-08-07T15:56:28.427Z,19.40
2022-08-07T15:59:16.440Z,18.80
2022-08-07T16:02:01.738Z,19.30
2022-08-07T16:04:34.452Z,19.00
2022-08-07T16:08:31.521Z,19.60
2022-08-07T16:10:17.016Z,18.37
2022-08-07T16:12:58.162Z,18.77
2022-08-07T16:15:58.083Z,18.80
2022-08-07T16:18:50.988Z,18.50
2022-08-07T16:22:01.780Z,18.33
2022-08-07T16:24:33.639Z,18.73
2022-08-07T16:27:18.312Z,18.00
2022-08-07T16:30:29.295Z,18.60
2022-08-07T16:34:02.931Z,18.53
2022-08-07T16:36:19.779Z,18.57
2022-08-07T16:39:33.748Z,17.73
2022-08-07T16:42:30.225Z,18.00
2022-08-07T16:45:15.337Z,18.17
2022-08-07T16:48:23.169Z,18.50
2022-08-07T16:51:54.297Z,18.10
2022-08-07T16:54:33.057Z,18.20
2022-08-07T16:57:28.864Z,18.83
2022-08-07T17:00:15.316Z,18.70
2022-08-07T17:03:17.309Z,18.50
2022-08-07T17:06:02.450Z,17.90
2022-08-07T17:12:04.404Z,18.87
2022-08-07T17:14:54.726Z,18.27
2022-08-07T17:17:46.612Z,18.27
2022-08-07T17:20:29.661Z,17.73
2022-08-07T17:23:08.658Z,18.70
2022-08-07T17:25:57.093Z,18.87
2022-08-07T17:28:32.301Z,18.77
2022-08-07T17:31:16.213Z,18.77
2022-08-07T17:34:15.546Z,18.43
2022-08-07T17:36:57.476Z,18.60
2022-08-07T17:39:57.727Z,18.67
2022-08-07T17:42:58.170Z,18.83
2022-08-07T17:45:40.620Z,18.83
2022-08-07T17:48:30.428Z,18.70
2022-08-07T17:51:08.253Z,18.30
2022-08-07T17:54:02.052Z,18.90
2022-08-07T17:56:39.206Z,18.80
2022-08-07T17:59:24.701Z,18.80
2022-08-07T18:02:01.835Z,18.50
2022-08-07T18:04:38.911Z,18.90
2022-08-07T18:07:24.438Z,19.20
2022-08-07T18:10:05.882Z,19.27
2022-08-07T18:12:49.481Z,18.97
2022-08-07T18:15:23.954Z,18.40
2022-08-07T18:18:46.566Z,18.70
2022-08-07T18:21:41.414Z,18.57
2022-08-07T18:24:02.087Z,19.07
2022-08-07T18:27:00.655Z,18.40
2022-08-07T18:30:05.377Z,17.50
2022-08-07T18:32:51.459Z,17.87
2022-08-07T18:35:27.502Z,19.00
2022-08-07T18:38:55.947Z,18.40
2022-08-07T18:41:20.935Z,18.10
2022-08-07T18:43:59.219Z,18.20
2022-08-07T18:46:43.224Z,18.00
2022-08-07T18:50:33.149Z,17.50
2022-08-07T18:52:56.679Z,17.37
2022-08-07T18:55:42.684Z,17.90
2022-08-07T18:58:30.943Z,18.07
2022-08-07T19:02:18.590Z,17.83
2022-08-07T19:04:09.920Z,17.90
2022-08-07T19:06:51.411Z,18.17
2022-08-07T19:09:55.356Z,18.03
2022-08-07T19:12:20.341Z,18.40
2022-08-07T19:15:02.531Z,18.43
2022-08-07T19:18:03.332Z,18.87
2022-08-07T19:21:09.788Z,18.50
2022-08-07T19:23:59.051Z,18.40
2022-08-07T19:26:36.192Z,18.73
2022-08-07T19:31:03.821Z,18.90
2022-08-07T19:32:26.090Z,18.50
2022-08-07T19:35:01.385Z,17.70
2022-08-07T19:37:55.258Z,17.80
2022-08-07T19:40:51.483Z,17.80
2022-08-07T19:43:43.366Z,18.23
2022-08-07T19:46:37.234Z,18.50
2022-08-07T19:49:12.604Z,18.97
2022-08-07T19:52:00.727Z,18.43
2022-08-07T19:54:45.142Z,18.50
2022-08-07T19:58:01.399Z,18.00
2022-08-07T20:00:30.992Z,18.50
2022-08-07T20:03:34.924Z,18.10
2022-08-07T20:06:15.671Z,18.00
2022-08-07T20:09:01.943Z,18.20
2022-08-07T20:12:22.513Z,17.90
2022-08-07T20:14:53.982Z,18.10
2022-08-07T20:17:32.391Z,18.17
2022-08-07T20:20:11.500Z,18.00
2022-08-07T20:22:52.252Z,18.00
2022-08-07T20:25:25.175Z,18.40
2022-08-07T20:27:58.431Z,19.17
2022-08-07T20:30:35.633Z,18.57
2022-08-07T20:33:09.080Z,18.30
2022-08-07T20:36:10.959Z,18.80
2022-08-07T20:38:53.713Z,19.50
2022-08-07T20:41:37.863Z,19.17
2022-08-07T20:44:14.325Z,18.90
2022-08-07T20:47:04.237Z,19.60
2022-08-07T20:49:59.820Z,19.33
2022-08-07T20:52:51.458Z,19.53
2022-08-07T20:55:35.868Z,20.23
2022-08-07T20:58:19.333Z,19.17
2022-08-07T21:01:03.585Z,18.70
2022-08-07T21:04:18.861Z,19.40
2022-08-07T21:07:04.516Z,19.47
2022-08-07T21:10:04.132Z,19.20
2022-08-07T21:12:39.207Z,19.90
2022-08-07T21:15:19.003Z,20.07
2022-08-07T21:18:09.670Z,19.90
2022-08-07T21:20:48.000Z,20.33
2022-08-07T21:23:42.638Z,20.70
2022-08-07T21:26:45.856Z,20.33
2022-08-07T21:29:37.320Z,20.40
2022-08-07T21:32:43.835Z,21.50
2022-08-07T21:36:06.161Z,20.80
2022-08-07T21:38:44.426Z,21.40
2022-08-07T21:41:37.699Z,21.20
2022-08-07T21:44:25.385Z,21.70
2022-08-07T21:47:07.484Z,20.90
2022-08-07T21:50:02.646Z,20.17
2022-08-07T21:52:45.904Z,21.20
2022-08-07T21:55:30.999Z,20.20
2022-08-07T21:58:12.074Z,20.57
2022-08-07T22:00:58.774Z,19.87
2022-08-07T22:03:42.069Z,19.53
2022-08-07T22:06:30.720Z,19.50
2022-08-07T22:09:10.231Z,20.40
2022-08-07T22:12:04.958Z,19.50
2022-08-07T22:15:00.079Z,20.10
2022-08-07T22:17:37.242Z,21.50
2022-08-07T22:20:23.854Z,20.40
2022-08-07T22:23:09.740Z,20.57
2022-08-07T22:25:48.395Z,20.50
2022-08-07T22:28:30.868Z,22.10
2022-08-07T22:31:09.319Z,20.10
2022-08-07T22:33:56.418Z,23.23
2022-08-07T22:36:46.561Z,22.30
2022-08-07T22:39:29.626Z,21.97
2022-08-07T22:42:19.073Z,19.90
2022-08-07T22:46:21.846Z,19.67
2022-08-07T22:49:00.450Z,20.10
2022-08-07T22:51:52.169Z,21.53
2022-08-07T22:54:57.489Z,20.40
2022-08-07T22:58:24.880Z,20.30
2022-08-07T23:01:21.351Z,22.37
2022-08-07T23:04:05.951Z,21.00
2022-08-07T23:07:25.970Z,21.80
2022-08-07T23:10:37.352Z,21.47
2022-08-07T23:13:09.725Z,20.90
2022-08-07T23:16:05.856Z,21.60
2022-08-07T23:19:11.119Z,20.80
2022-08-07T23:21:51.015Z,20.87
2022-08-07T23:24:47.668Z,20.87
2022-08-07T23:28:20.508Z,21.30
2022-08-07T23:31:06.445Z,21.00
2022-08-07T23:34:34.063Z,21.17
2022-08-07T23:37:25.614Z,21.70
2022-08-07T23:40:16.688Z,21.93
2022-08-07T23:43:41.789Z,22.83
2022-08-07T23:46:38.815Z,23.70
2022-08-07T23:49:51.445Z,23.70
2022-08-07T23:53:01.232Z,23.70
2022-08-07T23:55:53.304Z,23.47
2022-08-07T23:58:46.921Z,24.27
